SVO weather

Sheremetyevo International Airport
Moscow, Moscow Oblast, Russia

Public forecast

Using degrees Celsius for public forecast. Weather courtesy of forecast.io.

METAR (pilot weather report)

Retrieved 2019/05/20 17:00 UTC (9 minutes ago):

UUEE 201700Z 02003MPS CAVOK 19/04 Q1020 R06C/CLRD62 R06R/CLRD62 NOSIG

TAF (pilot weather forecast)

Retrieved 2019/05/20 15:30 UTC (2 hours ago):

TAF UUEE 201354Z 2015/2115 34003G08MPS CAVOK TX23/2112Z TN10/2102Z BECMG 2018/2020 VRB01MPS BECMG 2106/2109 18006MPS BECMG 2113/2115 24007MPS